NCAR-RAP Real-Time Weather Data

Output produced by METARs form (27 May 2017  08:20 UTC)
found at http://weather.rap.ucar.edu/surface/
 
Conditions at: KSRQ observed 27 May 2017  07:53 UTC
Temperature: 19.4°C (67°F)
Dewpoint: 16.7°C (62°F) [RH = 84%]
Pressure (altimeter): 30.03 inches Hg (1017.0 mb)
[Sea-level pressure: 1016.8 mb]
Winds: from the N (350 degrees) at 3 MPH (3 knots; 1.6 m/s)
Visibility: 10 or more miles (16+ km)
Ceiling: at least 12,000 feet AGL
Clouds: sky clear below 12,000 feet AGL
Present Weather:
SOME DATA ABOVE MAY BE INACCURATE!!!
"$" is an indication the sensor requires maintenance
KSRQ 270753Z AUTO 35003KT 10SM CLR 19/17 A3003 RMK AO2 SLP168 T01940167 $

Conditions at: KSRQ observed 27 May 2017  06:53 UTC
Temperature: 20.0°C (68°F)
Dewpoint: 16.7°C (62°F) [RH = 81%]
Pressure (altimeter): 30.04 inches Hg (1017.4 mb)
[Sea-level pressure: 1017.3 mb]
Winds: from the NNW (340 degrees) at 3 MPH (3 knots; 1.6 m/s)
Visibility: 10 or more miles (16+ km)
Ceiling: unknown
Clouds: missing
Present Weather:
SOME DATA ABOVE MAY BE INACCURATE!!!
"$" is an indication the sensor requires maintenance
KSRQ 270653Z AUTO 34003KT 10SM 20/17 A3004 RMK AO2 SLP173 T02000167 $

Conditions at: KSRQ observed 27 May 2017  05:53 UTC
Temperature: 20.0°C (68°F)
Dewpoint: 16.7°C (62°F) [RH = 81%]
Pressure (altimeter): 30.04 inches Hg (1017.4 mb)
[Sea-level pressure: 1017.2 mb]
Winds: calm
Visibility: 10 or more miles (16+ km)
Ceiling: at least 12,000 feet AGL
Clouds: sky clear below 12,000 feet AGL
Present Weather: automated observation with no human augmentation;
there may or may not be significant weather present at this time
KSRQ 270553Z AUTO 00000KT 10SM CLR 20/17 A3004 RMK AO2 SLP172 T02000167 10261 20200 58005

Conditions at: KSRQ observed 27 May 2017  04:53 UTC
Temperature: 21.7°C (71°F)
Dewpoint: 17.2°C (63°F) [RH = 76%]
Pressure (altimeter): 30.05 inches Hg (1017.7 mb)
[Sea-level pressure: 1017.6 mb]
Winds: calm
Visibility: 10 or more miles (16+ km)
Ceiling: at least 12,000 feet AGL
Clouds: sky clear below 12,000 feet AGL
Present Weather: automated observation with no human augmentation;
there may or may not be significant weather present at this time
KSRQ 270453Z AUTO 00000KT 10SM CLR 22/17 A3005 RMK AO2 SLP176 T02170172 403000172

Conditions at: KSRQ observed 27 May 2017  03:53 UTC
Temperature: 21.7°C (71°F)
Dewpoint: 17.2°C (63°F) [RH = 76%]
Pressure (altimeter): 30.06 inches Hg (1018.0 mb)
[Sea-level pressure: 1017.9 mb]
Winds: from the NW (310 degrees) at 5 MPH (4 knots; 2.1 m/s)
Visibility: 10 or more miles (16+ km)
Ceiling: at least 12,000 feet AGL
Clouds: sky clear below 12,000 feet AGL
Present Weather: automated observation with no human augmentation;
there may or may not be significant weather present at this time
KSRQ 270353Z AUTO 31004KT 10SM CLR 22/17 A3006 RMK AO2 SLP179 T02170172

Conditions at: KSRQ observed 27 May 2017  02:53 UTC
Temperature: 22.2°C (72°F)
Dewpoint: 17.8°C (64°F) [RH = 76%]
Pressure (altimeter): 30.06 inches Hg (1018.0 mb)
[Sea-level pressure: 1017.8 mb]
Winds: from the NW (310 degrees) at 6 MPH (5 knots; 2.6 m/s)
Visibility: 10 or more miles (16+ km)
Ceiling: at least 12,000 feet AGL
Clouds: sky clear below 12,000 feet AGL
Present Weather: automated observation with no human augmentation;
there may or may not be significant weather present at this time
KSRQ 270253Z AUTO 31005KT 10SM CLR 22/18 A3006 RMK AO2 SLP178 T02220178 52009

Conditions at: KSRQ observed 27 May 2017  01:53 UTC
Temperature: 23.3°C (74°F)
Dewpoint: 17.8°C (64°F) [RH = 71%]
Pressure (altimeter): 30.05 inches Hg (1017.7 mb)
[Sea-level pressure: 1017.5 mb]
Winds: from the N (360 degrees) at 3 MPH (3 knots; 1.6 m/s)
Visibility: 10 or more miles (16+ km)
Ceiling: at least 12,000 feet AGL
Clouds: sky clear below 12,000 feet AGL
Present Weather: automated observation with no human augmentation;
there may or may not be significant weather present at this time
KSRQ 270153Z AUTO 36003KT 10SM CLR 23/18 A3005 RMK AO2 SLP175 T02330178

Conditions at: KSRQ observed 27 May 2017  00:53 UTC
Temperature: 23.9°C (75°F)
Dewpoint: 17.8°C (64°F) [RH = 69%]
Pressure (altimeter): 30.04 inches Hg (1017.4 mb)
[Sea-level pressure: 1017.1 mb]
Winds: from the NW (320 degrees) at 5 MPH (4 knots; 2.1 m/s)
Visibility: 10 or more miles (16+ km)
Ceiling: at least 12,000 feet AGL
Clouds: sky clear below 12,000 feet AGL
Present Weather: automated observation with no human augmentation;
there may or may not be significant weather present at this time
KSRQ 270053Z AUTO 32004KT 10SM CLR 24/18 A3004 RMK AO2 SLP171 T02390178

Conditions at: KSRQ observed 26 May 2017  23:53 UTC
Temperature: 26.1°C (79°F)
Dewpoint: 17.2°C (63°F) [RH = 58%]
Pressure (altimeter): 30.03 inches Hg (1017.0 mb)
[Sea-level pressure: 1016.8 mb]
Winds: from the W (280 degrees) at 8 MPH (7 knots; 3.6 m/s)
Visibility: 10 or more miles (16+ km)
Ceiling: at least 12,000 feet AGL
Clouds: sky clear below 12,000 feet AGL
Present Weather: automated observation with no human augmentation;
there may or may not be significant weather present at this time
KSRQ 262353Z AUTO 28007KT 10SM CLR 26/17 A3003 RMK AO2 SLP168 T02610172 10300 20261 53002

Conditions at: KSRQ observed 26 May 2017  22:53 UTC
Temperature: 27.2°C (81°F)
Dewpoint: 17.2°C (63°F) [RH = 54%]
Pressure (altimeter): 30.03 inches Hg (1017.0 mb)
[Sea-level pressure: 1016.7 mb]
Winds: from the WNW (290 degrees) at 9 MPH (8 knots; 4.2 m/s)
Visibility: 10 or more miles (16+ km)
Ceiling: at least 12,000 feet AGL
Clouds: sky clear below 12,000 feet AGL
Present Weather: automated observation with no human augmentation;
there may or may not be significant weather present at this time
KSRQ 262253Z AUTO 29008KT 10SM CLR 27/17 A3003 RMK AO2 SLP167 T02720172

Conditions at: KSRQ observed 26 May 2017  21:53 UTC
Temperature: 28.3°C (83°F)
Dewpoint: 17.2°C (63°F) [RH = 51%]
Pressure (altimeter): 30.02 inches Hg (1016.7 mb)
[Sea-level pressure: 1016.6 mb]
Winds: from the WNW (290 degrees) at 10 MPH (9 knots; 4.7 m/s)
Visibility: 10 or more miles (16+ km)
Ceiling: at least 12,000 feet AGL
Clouds: sky clear below 12,000 feet AGL
Present Weather: automated observation with no human augmentation;
there may or may not be significant weather present at this time
KSRQ 262153Z AUTO 29009KT 10SM CLR 28/17 A3002 RMK AO2 SLP166 T02830172

Conditions at: KSRQ observed 26 May 2017  20:53 UTC
Temperature: 28.9°C (84°F)
Dewpoint: 17.8°C (64°F) [RH = 51%]
Pressure (altimeter): 30.02 inches Hg (1016.7 mb)
[Sea-level pressure: 1016.6 mb]
Winds: from the W (280 degrees) at 10 MPH (9 knots; 4.7 m/s)
Visibility: 10 or more miles (16+ km)
Ceiling: at least 12,000 feet AGL
Clouds: sky clear below 12,000 feet AGL
Present Weather: automated observation with no human augmentation;
there may or may not be significant weather present at this time
KSRQ 262053Z AUTO 28009KT 10SM CLR 29/18 A3002 RMK AO2 SLP166 T02890178 56008

Conditions at: KSRQ observed 26 May 2017  19:53 UTC
Temperature: 28.9°C (84°F)
Dewpoint: 17.2°C (63°F) [RH = 49%]
Pressure (altimeter): 30.03 inches Hg (1017.0 mb)
[Sea-level pressure: 1016.7 mb]
Winds: from the W (280 degrees) at 12 MPH (10 knots; 5.2 m/s)
Visibility: 10 or more miles (16+ km)
Ceiling: at least 12,000 feet AGL
Clouds: sky clear below 12,000 feet AGL
Present Weather: automated observation with no human augmentation;
there may or may not be significant weather present at this time
KSRQ 261953Z AUTO 28010KT 10SM CLR 29/17 A3003 RMK AO2 SLP167 T02890172

Conditions at: KSRQ observed 26 May 2017  18:53 UTC
Temperature: 28.3°C (83°F)
Dewpoint: 17.8°C (64°F) [RH = 53%]
Pressure (altimeter): 30.04 inches Hg (1017.4 mb)
[Sea-level pressure: 1017.2 mb]
Winds: from the W (270 degrees) at 13 MPH (11 knots; 5.7 m/s)
Visibility: 10 or more miles (16+ km)
Ceiling: at least 12,000 feet AGL
Clouds: sky clear below 12,000 feet AGL
Present Weather: automated observation with no human augmentation;
there may or may not be significant weather present at this time
KSRQ 261853Z AUTO 27011KT 10SM CLR 28/18 A3004 RMK AO2 SLP172 T02830178

Conditions at: KSRQ observed 26 May 2017  17:53 UTC
Temperature: 28.9°C (84°F)
Dewpoint: 16.7°C (62°F) [RH = 48%]
Pressure (altimeter): 30.05 inches Hg (1017.7 mb)
[Sea-level pressure: 1017.4 mb]
Winds: from the W (260 degrees) at 10 MPH (9 knots; 4.7 m/s)
Visibility: 10 or more miles (16+ km)
Ceiling: at least 12,000 feet AGL
Clouds: sky clear below 12,000 feet AGL
Present Weather: no significant weather observed at this time
KSRQ 261753Z 26009KT 10SM CLR 29/17 A3005 RMK AO2 SLP174 T02890167 10289 20206 58006

Conditions at: KSRQ observed 26 May 2017  16:53 UTC
Temperature: 28.9°C (84°F)
Dewpoint: 16.7°C (62°F) [RH = 48%]
Pressure (altimeter): 30.06 inches Hg (1018.0 mb)
[Sea-level pressure: 1017.7 mb]
Winds: from the W (270 degrees) at 9 MPH (8 knots; 4.2 m/s)
Visibility: 10 or more miles (16+ km)
Ceiling: at least 12,000 feet AGL
Clouds: sky clear below 12,000 feet AGL
Present Weather: no significant weather observed at this time
KSRQ 261653Z 27008KT 10SM CLR 29/17 A3006 RMK AO2 SLP177 T02890167

Conditions at: KSRQ observed 26 May 2017  15:53 UTC
Temperature: 27.8°C (82°F)
Dewpoint: 16.1°C (61°F) [RH = 49%]
Pressure (altimeter): 30.06 inches Hg (1018.0 mb)
[Sea-level pressure: 1017.8 mb]
Winds: from the WSW (250 degrees) at 6 MPH (5 knots; 2.6 m/s)
Visibility: 10 or more miles (16+ km)
Ceiling: at least 12,000 feet AGL
Clouds: sky clear below 12,000 feet AGL
Present Weather: no significant weather observed at this time
KSRQ 261553Z 25005KT 10SM CLR 28/16 A3006 RMK AO2 SLP178 T02780161

Conditions at: KSRQ observed 26 May 2017  14:53 UTC
Temperature: 26.7°C (80°F)
Dewpoint: 16.1°C (61°F) [RH = 52%]
Pressure (altimeter): 30.06 inches Hg (1018.0 mb)
[Sea-level pressure: 1018.0 mb]
Winds: from the ESE (120 degrees) at 3 MPH (3 knots; 1.6 m/s)
Visibility: 10 or more miles (16+ km)
Ceiling: at least 12,000 feet AGL
Clouds: sky clear below 12,000 feet AGL
Present Weather: no significant weather observed at this time
KSRQ 261453Z 12003KT 10SM CLR 27/16 A3006 RMK AO2 SLP180 T02670161 50007

Conditions at: KSRQ observed 26 May 2017  13:53 UTC
Temperature: 26.1°C (79°F)
Dewpoint: 16.1°C (61°F) [RH = 54%]
Pressure (altimeter): 30.07 inches Hg (1018.4 mb)
[Sea-level pressure: 1018.2 mb]
Winds: calm
Visibility: 10 or more miles (16+ km)
Ceiling: at least 12,000 feet AGL
Clouds: sky clear below 12,000 feet AGL
Present Weather: no significant weather observed at this time
KSRQ 261353Z 00000KT 10SM CLR 26/16 A3007 RMK AO2 SLP182 T02610161

Conditions at: KSRQ observed 26 May 2017  12:53 UTC
Temperature: 24.4°C (76°F)
Dewpoint: 17.2°C (63°F) [RH = 64%]
Pressure (altimeter): 30.06 inches Hg (1018.0 mb)
[Sea-level pressure: 1017.8 mb]
Winds: from the ENE (60 degrees) at 3 MPH (3 knots; 1.6 m/s)
Visibility: 10 or more miles (16+ km)
Ceiling: at least 12,000 feet AGL
Clouds: sky clear below 12,000 feet AGL
Present Weather: no significant weather observed at this time
KSRQ 261253Z 06003KT 10SM CLR 24/17 A3006 RMK AO2 SLP178 T02440172

Conditions at: KSRQ observed 26 May 2017  11:53 UTC
Temperature: 20.6°C (69°F)
Dewpoint: 17.8°C (64°F) [RH = 84%]
Pressure (altimeter): 30.04 inches Hg (1017.4 mb)
[Sea-level pressure: 1017.3 mb]
Winds: from the ESE (120 degrees) at 5 MPH (4 knots; 2.1 m/s)
Visibility: 10 or more miles (16+ km)
Ceiling: at least 12,000 feet AGL
Clouds: sky clear below 12,000 feet AGL
Present Weather: no significant weather observed at this time
KSRQ 261153Z 12004KT 10SM CLR 21/18 A3004 RMK AO2 SLP173 T02060178 10206 20172 53021

Conditions at: KSRQ observed 26 May 2017  10:53 UTC
Temperature: 17.2°C (63°F)
Dewpoint: 15.6°C (60°F) [RH = 90%]
Pressure (altimeter): 30.02 inches Hg (1016.7 mb)
[Sea-level pressure: 1016.5 mb]
Winds: from the ESE (110 degrees) at 3 MPH (3 knots; 1.6 m/s)
Visibility: 10 or more miles (16+ km)
Ceiling: at least 12,000 feet AGL
Clouds: sky clear below 12,000 feet AGL
Present Weather: no significant weather observed at this time
KSRQ 261053Z 11003KT 10SM CLR 17/16 A3002 RMK AO2 SLP165 T01720156

Conditions at: KSRQ observed 26 May 2017  09:53 UTC
Temperature: 18.9°C (66°F)
Dewpoint: 15.6°C (60°F) [RH = 81%]
Pressure (altimeter): 30.00 inches Hg (1016.0 mb)
[Sea-level pressure: 1015.7 mb]
Winds: from the N (350 degrees) at 3 MPH (3 knots; 1.6 m/s)
Visibility: 10 or more miles (16+ km)
Ceiling: at least 12,000 feet AGL
Clouds: sky clear below 12,000 feet AGL
Present Weather: no significant weather observed at this time
KSRQ 260953Z 35003KT 10SM CLR 19/16 A3000 RMK AO2 SLP157 T01890156

Conditions at: KSRQ observed 26 May 2017  08:53 UTC
Temperature: 18.9°C (66°F)
Dewpoint: 15.6°C (60°F) [RH = 81%]
Pressure (altimeter): 29.98 inches Hg (1015.3 mb)
[Sea-level pressure: 1015.2 mb]
Winds: calm
Visibility: 10 or more miles (16+ km)
Ceiling: at least 12,000 feet AGL
Clouds: sky clear below 12,000 feet AGL
Present Weather: automated observation with no human augmentation;
there may or may not be significant weather present at this time
KSRQ 260853Z AUTO 00000KT 10SM CLR 19/16 A2998 RMK AO2 SLP152 T01890156 53005